Terminal Aerodrome Forecast
Issued by NWS

Current Version | Previous Version | Graphics & Text | Print | Product List | Glossary On
Versions: 1 2 3 4 5 6 7 8 9 10 11 12 13 14 15
000
FTUS41 KPBZ 230520
TAFMGW
TAF
KMGW 230520Z 2306/2406 25005KT P6SM SCT080
     FM231400 27010G20KT P6SM BKN035
     FM240000 29007KT P6SM BKN050=

USA.gov is the U.S. government's official web portal to all federal, state and local government web resources and services.